Archer City, Texas
Current Conditions -  °F | °C
As of 7:52 AM on Monday 26 Jan 2015 (Local Time) from KSPS Reporting Station
Clear Clear  
Wind Chill: -2°   Ceiling: Unl
Heat Index:   Visibility: 10mi
Dew Point: -1°   Wind: 8mph
Humidity: 82%   Direction: 240°WSW
Pressure: 30.19"   Gusts: NA
Location:  33.6°N, 98.63°W
Report Text: KSPS 261352Z 24007KT 10SM CLR 02/M01 A3019 RMK AO2 SLP226 T00171011
Loading
Personal Weather Stations






























Interactive Weather Map New forecast layout! Learn more

10-Day Weather Forecast

Advertisements
Track Severe Weather on mobile